TimeCDT,TemperatureF,Dew PointF,Humidity,Sea Level PressureIn,VisibilityMPH,Wind Direction,Wind SpeedMPH,Gust SpeedMPH,PrecipitationIn,Events,Conditions,WindDirDegrees,DateUTC
12:53 AM,64.9,57.9,78,30.01,10.0,SSE,6.9,-,N/A,,Clear,160,2013-07-04 05:53:00
1:53 AM,64.0,57.0,78,30.00,10.0,SSE,5.8,-,N/A,,Clear,150,2013-07-04 06:53:00
2:53 AM,60.1,57.0,90,30.00,10.0,ESE,6.9,-,N/A,,Clear,120,2013-07-04 07:53:00
3:53 AM,60.1,55.9,86,29.99,10.0,SSE,3.5,-,N/A,,Clear,150,2013-07-04 08:53:00
4:53 AM,60.1,55.9,86,30.01,10.0,SSE,5.8,-,N/A,,Clear,150,2013-07-04 09:53:00
5:53 AM,59.0,55.0,87,30.02,10.0,SE,6.9,-,N/A,,Clear,140,2013-07-04 10:53:00
6:53 AM,62.1,55.9,80,30.02,10.0,SE,5.8,-,N/A,,Scattered Clouds,140,2013-07-04 11:53:00
7:53 AM,64.9,57.0,75,30.03,10.0,SSE,6.9,-,N/A,,Clear,160,2013-07-04 12:53:00
8:53 AM,70.0,60.1,71,30.03,10.0,South,3.5,-,N/A,,Clear,170,2013-07-04 13:53:00
9:53 AM,73.9,60.1,62,30.02,10.0,South,9.2,-,N/A,,Clear,180,2013-07-04 14:53:00
10:53 AM,78.1,60.1,54,30.01,10.0,SSE,6.9,-,N/A,,Clear,160,2013-07-04 15:53:00
11:53 AM,81.0,60.1,49,30.01,10.0,South,9.2,-,N/A,,Clear,190,2013-07-04 16:53:00
12:53 PM,82.0,60.1,47,30.00,10.0,SSE,8.1,-,N/A,,Clear,160,2013-07-04 17:53:00
1:53 PM,84.0,59.0,43,29.99,10.0,South,10.4,-,N/A,,Clear,190,2013-07-04 18:53:00
2:53 PM,82.9,60.1,46,29.99,10.0,SW,11.5,-,N/A,,Clear,220,2013-07-04 19:53:00
3:53 PM,84.0,57.9,41,29.98,10.0,SSW,9.2,-,N/A,,Partly Cloudy,200,2013-07-04 20:53:00
4:53 PM,84.0,57.9,41,29.98,10.0,South,12.7,-,N/A,,Clear,190,2013-07-04 21:53:00
5:53 PM,82.9,59.0,44,29.96,10.0,South,12.7,-,N/A,,Clear,180,2013-07-04 22:53:00
6:53 PM,81.0,57.9,45,29.96,10.0,South,11.5,-,N/A,,Clear,180,2013-07-04 23:53:00
7:53 PM,78.1,57.9,50,29.95,10.0,South,5.8,-,N/A,,Clear,170,2013-07-05 00:53:00
8:53 PM,73.9,59.0,59,29.95,10.0,SSE,4.6,-,N/A,,Clear,150,2013-07-05 01:53:00
9:53 PM,73.0,59.0,61,29.96,10.0,SSE,6.9,-,N/A,,Clear,160,2013-07-05 02:53:00
10:53 PM,70.0,60.1,71,29.97,10.0,SSE,5.8,-,N/A,,Clear,150,2013-07-05 03:53:00
11:53 PM,66.9,60.1,79,29.97,10.0,SE,4.6,-,N/A,,Clear,130,2013-07-05 04:53:00